Time;durP1;ratioP1;P1;durP2;ratioP2;P2;SDS_P1;SDS_P2;PMS_P1;PMS_P2;Temp;Humidity;BMP_temperature;BMP_pressure;BME280_temperature;BME280_humidity;BME280_pressure;Samples;Min_cycle;Max_cycle;Signal;HPM_P1;HPM_P2
2024/04/19 00:01:54;;;;;;;7.32;1.42;;;8.00;99.90;;;;;;5392390;26;20040;-70
2024/04/19 00:04:22;;;;;;;3.08;0.90;;;8.10;99.90;;;;;;5384295;26;19999;-69
2024/04/19 00:06:50;;;;;;;3.22;0.82;;;8.10;99.90;;;;;;5400000;26;20015;-69
2024/04/19 00:09:17;;;;;;;3.72;1.20;;;8.10;99.90;;;;;;5381975;26;20011;-70
2024/04/19 00:11:44;;;;;;;5.30;1.35;;;8.20;99.90;;;;;;5390552;26;20003;-69
2024/04/19 00:14:12;;;;;;;3.63;0.90;;;8.20;99.90;;;;;;5395343;26;20004;-70
2024/04/19 00:16:39;;;;;;;7.15;1.60;;;8.20;99.90;;;;;;5378452;26;20000;-69
2024/04/19 00:19:06;;;;;;;2.90;1.08;;;8.20;99.90;;;;;;5375360;26;20018;-69
2024/04/19 00:21:32;;;;;;;11.18;1.20;;;8.20;99.90;;;;;;5396819;26;19996;-69
2024/04/19 00:23:59;;;;;;;5.10;1.08;;;8.30;99.90;;;;;;5393867;26;19999;-70
2024/04/19 00:26:26;;;;;;;4.18;1.35;;;8.30;99.90;;;;;;5375933;26;20131;-69
2024/04/19 00:28:53;;;;;;;9.02;1.10;;;8.30;99.90;;;;;;5389152;26;20015;-70
2024/04/19 00:31:20;;;;;;;8.88;1.60;;;8.30;99.90;;;;;;5392521;26;20015;-70
2024/04/19 00:33:47;;;;;;;6.00;1.10;;;8.40;99.90;;;;;;5396095;26;20055;-69
2024/04/19 00:36:14;;;;;;;5.80;1.55;;;8.40;99.90;;;;;;5388195;26;20004;-69
2024/04/19 00:38:41;;;;;;;4.25;1.13;;;8.40;99.90;;;;;;5385815;26;20022;-70
2024/04/19 00:41:08;;;;;;;5.28;1.60;;;8.40;99.90;;;;;;5394033;26;19996;-70
2024/04/19 00:43:35;;;;;;;5.15;1.00;;;8.40;99.90;;;;;;5430210;26;20018;-70
2024/04/19 00:46:05;;;;;;;5.55;1.55;;;8.40;99.90;;;;;;5391774;26;20014;-71
2024/04/19 00:48:32;;;;;;;6.38;1.45;;;8.40;99.90;;;;;;5396438;26;20012;-70
2024/04/19 00:51:00;;;;;;;13.02;2.13;;;8.40;99.90;;;;;;5383268;26;20040;-70
2024/04/19 00:53:31;;;;;;;8.07;1.23;;;8.40;99.90;;;;;;5386866;26;20081;-71
2024/04/19 00:56:03;;;;;;;5.38;0.95;;;8.50;99.90;;;;;;5383405;26;20015;-70
2024/04/19 00:58:30;;;;;;;5.43;1.25;;;8.50;99.90;;;;;;5354730;26;20343;-70
2024/04/19 01:01:05;;;;;;;7.30;1.40;;;8.50;99.90;;;;;;5388433;26;20008;-70
2024/04/19 01:03:32;;;;;;;4.65;1.65;;;8.60;99.90;;;;;;5390724;26;20011;-70
2024/04/19 01:05:59;;;;;;;8.85;1.38;;;8.70;99.90;;;;;;5391288;26;20039;-70
2024/04/19 01:08:26;;;;;;;8.18;1.58;;;8.60;99.90;;;;;;5400396;26;20007;-70
2024/04/19 01:10:53;;;;;;;8.68;1.90;;;8.60;99.90;;;;;;5393621;26;20034;-70
2024/04/19 01:13:20;;;;;;;2.95;1.10;;;8.70;99.90;;;;;;5378307;26;20000;-70
2024/04/19 01:15:50;;;;;;;7.75;1.30;;;8.70;99.90;;;;;;5388094;26;20012;-70
2024/04/19 01:18:18;;;;;;;5.25;1.42;;;8.70;99.90;;;;;;5382253;26;20031;-69
2024/04/19 01:20:46;;;;;;;7.60;2.33;;;8.80;99.90;;;;;;5392954;26;20396;-70
2024/04/19 01:23:14;;;;;;;5.05;1.30;;;8.80;99.90;;;;;;5385967;26;19997;-69
2024/04/19 01:25:41;;;;;;;6.72;2.15;;;8.80;99.90;;;;;;5396591;26;20074;-69
2024/04/19 01:28:09;;;;;;;4.03;1.60;;;8.80;99.90;;;;;;5371872;26;20048;-70
2024/04/19 01:30:42;;;;;;;8.35;1.45;;;8.90;99.90;;;;;;5392792;26;20078;-70
2024/04/19 01:33:10;;;;;;;5.43;1.83;;;8.90;99.90;;;;;;5397019;26;20015;-70
2024/04/19 01:35:37;;;;;;;8.07;1.90;;;8.90;99.90;;;;;;5396560;26;20061;-70
2024/04/19 01:38:04;;;;;;;4.45;1.73;;;9.00;99.90;;;;;;5393022;26;20018;-70
2024/04/19 01:40:31;;;;;;;3.60;1.30;;;9.00;99.90;;;;;;5384682;26;20012;-70
2024/04/19 01:42:57;;;;;;;5.85;1.70;;;9.00;99.90;;;;;;5383714;26;20020;-71
2024/04/19 01:45:24;;;;;;;4.35;1.75;;;9.00;99.90;;;;;;5394779;26;20077;-70
2024/04/19 01:47:51;;;;;;;5.38;1.38;;;9.10;99.90;;;;;;5392273;26;20568;-69
2024/04/19 01:50:18;;;;;;;4.03;1.50;;;9.10;99.90;;;;;;5403306;26;20078;-69
2024/04/19 01:52:46;;;;;;;8.35;2.05;;;9.10;99.90;;;;;;5393277;26;20114;-69
2024/04/19 01:55:14;;;;;;;8.60;1.70;;;9.10;99.90;;;;;;5396183;26;20023;-69
2024/04/19 01:57:41;;;;;;;6.38;1.50;;;9.20;99.90;;;;;;5379110;26;20012;-69
2024/04/19 02:00:10;;;;;;;6.53;1.80;;;9.20;99.90;;;;;;5384138;26;20050;-68
2024/04/19 02:02:37;;;;;;;3.78;1.30;;;9.20;99.90;;;;;;5377853;26;20049;-69
2024/04/19 02:05:04;;;;;;;6.72;1.85;;;9.30;99.90;;;;;;5382636;26;20501;-68
2024/04/19 02:07:31;;;;;;;5.05;1.60;;;9.30;99.90;;;;;;5395937;26;20000;-69
2024/04/19 02:09:58;;;;;;;3.80;1.63;;;9.30;99.90;;;;;;5403078;26;20105;-68
2024/04/19 02:12:25;;;;;;;7.18;1.80;;;9.30;99.90;;;;;;5395180;26;20037;-69
2024/04/19 02:14:53;;;;;;;8.70;1.92;;;9.30;99.90;;;;;;5378711;26;20343;-69
2024/04/19 02:17:20;;;;;;;8.02;2.08;;;9.40;99.90;;;;;;5408815;26;20331;-68
2024/04/19 02:19:47;;;;;;;4.28;1.52;;;9.40;99.90;;;;;;5398521;26;20043;-69
2024/04/19 02:22:14;;;;;;;6.60;1.75;;;9.40;99.90;;;;;;5385881;26;19996;-69
2024/04/19 02:24:41;;;;;;;8.23;1.67;;;9.40;99.90;;;;;;5414131;26;20007;-69
2024/04/19 02:30:51;;;;;;;4.80;1.60;;;9.40;99.90;;;;;;5393384;26;20001;-68
2024/04/19 02:32:41;;;;;;;7.35;1.80;;;9.40;99.90;;;;;;5396330;26;20004;-69
2024/04/19 02:35:08;;;;;;;6.53;1.77;;;9.40;99.90;;;;;;5399817;26;20011;-68
2024/04/19 02:37:35;;;;;;;5.70;1.58;;;9.50;99.90;;;;;;5400039;26;20040;-68
2024/04/19 02:40:02;;;;;;;6.85;1.52;;;9.50;99.90;;;;;;5394976;26;20000;-69
2024/04/19 02:42:29;;;;;;;7.00;2.42;;;9.50;99.90;;;;;;5385199;26;20082;-68
2024/04/19 02:44:56;;;;;;;4.80;1.70;;;9.50;99.90;;;;;;5403333;26;19999;-68
2024/04/19 02:47:23;;;;;;;5.78;1.90;;;9.50;99.90;;;;;;5386824;26;20004;-68
2024/04/19 02:49:50;;;;;;;9.95;1.80;;;9.50;99.90;;;;;;5402618;26;20081;-69
2024/04/19 02:52:17;;;;;;;9.90;1.83;;;9.50;99.90;;;;;;5391214;26;20000;-69
2024/04/19 02:54:44;;;;;;;8.18;3.25;;;9.50;99.90;;;;;;5391111;26;20078;-70
2024/04/19 02:57:11;;;;;;;4.75;1.98;;;9.60;99.90;;;;;;5395444;26;20859;-68
2024/04/19 02:59:38;;;;;;;11.60;1.92;;;9.60;99.90;;;;;;5391681;26;20007;-68
2024/04/19 03:02:05;;;;;;;5.93;1.70;;;9.60;99.90;;;;;;5399205;26;20535;-69
2024/04/19 03:04:37;;;;;;;7.40;1.60;;;9.60;99.90;;;;;;5382215;26;20024;-69
2024/04/19 03:07:04;;;;;;;8.43;2.15;;;9.60;99.90;;;;;;5381963;26;20004;-69
2024/04/19 03:09:31;;;;;;;7.07;1.63;;;9.60;99.90;;;;;;5389692;26;20012;-69
2024/04/19 03:11:58;;;;;;;5.80;1.60;;;9.60;99.90;;;;;;5381626;26;19999;-69
2024/04/19 03:14:26;;;;;;;4.50;1.65;;;9.60;99.90;;;;;;5388196;26;20058;-70
2024/04/19 03:16:53;;;;;;;8.63;2.33;;;9.60;99.90;;;;;;5379276;26;20024;-69
2024/04/19 03:19:20;;;;;;;8.27;2.67;;;9.60;99.90;;;;;;5384956;26;20015;-69
2024/04/19 03:21:49;;;;;;;7.60;2.42;;;9.60;99.90;;;;;;5392888;26;20012;-69
2024/04/19 03:24:16;;;;;;;10.45;2.08;;;9.60;99.90;;;;;;5397353;26;20000;-68
2024/04/19 03:26:43;;;;;;;13.20;2.17;;;9.60;99.90;;;;;;5378159;26;20490;-70
2024/04/19 03:29:10;;;;;;;6.18;1.67;;;9.60;99.90;;;;;;5389206;26;20015;-69
2024/04/19 03:31:37;;;;;;;9.43;2.38;;;9.70;99.90;;;;;;5387910;26;20078;-69
2024/04/19 03:34:04;;;;;;;10.63;3.88;;;9.70;99.90;;;;;;5394779;26;20000;-68
2024/04/19 03:36:31;;;;;;;4.47;1.70;;;9.70;99.90;;;;;;5397650;26;20015;-69
2024/04/19 03:38:58;;;;;;;8.43;2.28;;;9.70;99.90;;;;;;5390672;26;20004;-70
2024/04/19 03:41:25;;;;;;;7.60;1.80;;;9.70;99.90;;;;;;5389845;26;20004;-68
2024/04/19 03:46:37;;;;;;;8.02;2.45;;;9.70;99.90;;;;;;5400405;26;20004;-68
2024/04/19 03:49:04;;;;;;;6.45;2.22;;;9.80;99.90;;;;;;5380240;26;20459;-69
2024/04/19 03:51:31;;;;;;;7.97;2.08;;;9.80;99.90;;;;;;5388082;26;20000;-69
2024/04/19 03:53:58;;;;;;;8.20;2.08;;;9.80;99.90;;;;;;5384870;26;20087;-68
2024/04/19 03:56:25;;;;;;;10.10;2.47;;;9.80;99.90;;;;;;5395176;26;19996;-69
2024/04/19 03:58:54;;;;;;;8.65;2.33;;;9.80;99.90;;;;;;5388396;26;20370;-71
2024/04/19 04:01:21;;;;;;;9.88;2.05;;;9.80;99.90;;;;;;5389465;26;20020;-69
2024/04/19 04:03:52;;;;;;;10.77;2.30;;;9.80;99.90;;;;;;5376641;26;19999;-70
2024/04/19 04:06:19;;;;;;;7.00;2.80;;;9.80;99.90;;;;;;5373737;26;20004;-69
2024/04/19 04:08:46;;;;;;;8.23;2.05;;;9.80;99.90;;;;;;5375571;26;20016;-69
2024/04/19 04:11:13;;;;;;;6.53;2.25;;;9.80;99.90;;;;;;5392095;26;20000;-69
2024/04/19 04:13:40;;;;;;;12.18;4.10;;;9.80;99.90;;;;;;5347994;26;20656;-68
2024/04/19 04:16:08;;;;;;;10.55;2.58;;;9.80;99.90;;;;;;5400316;26;20338;-68
2024/04/19 04:18:35;;;;;;;9.27;2.30;;;9.80;99.90;;;;;;5400950;26;20018;-69
2024/04/19 04:21:02;;;;;;;8.18;1.77;;;9.80;99.90;;;;;;5390531;26;20027;-69
2024/04/19 04:23:30;;;;;;;10.95;2.25;;;9.80;99.90;;;;;;5380792;26;20069;-69
2024/04/19 04:25:57;;;;;;;3.75;1.92;;;9.90;99.90;;;;;;5377853;26;20001;-69
2024/04/19 04:28:24;;;;;;;9.27;2.38;;;9.90;99.90;;;;;;5394594;26;20000;-70
2024/04/19 04:30:51;;;;;;;9.55;2.70;;;10.00;99.90;;;;;;5389835;26;20454;-69
2024/04/19 04:33:19;;;;;;;9.98;3.50;;;10.00;99.90;;;;;;5394419;26;20027;-70
2024/04/19 04:35:46;;;;;;;7.78;2.55;;;10.00;99.90;;;;;;5387465;26;20000;-70
2024/04/19 04:38:13;;;;;;;9.73;2.10;;;10.10;99.90;;;;;;5378508;26;20004;-70
2024/04/19 04:40:40;;;;;;;9.85;2.20;;;10.10;99.90;;;;;;5387304;26;19999;-71
2024/04/19 04:43:07;;;;;;;12.30;2.95;;;10.20;99.90;;;;;;5389728;26;19996;-72
2024/04/19 04:45:34;;;;;;;11.15;2.53;;;10.20;99.90;;;;;;5396440;26;20001;-70
2024/04/19 04:48:01;;;;;;;14.70;2.15;;;10.20;99.90;;;;;;5387001;26;20065;-70
2024/04/19 04:50:28;;;;;;;7.78;2.05;;;10.20;99.90;;;;;;5388034;26;20385;-70
2024/04/19 04:53:01;;;;;;;12.32;2.10;;;10.30;99.90;;;;;;5395594;26;20569;-69
2024/04/19 04:55:30;;;;;;;14.88;2.33;;;10.30;99.90;;;;;;5385039;26;20028;-69
2024/04/19 04:57:57;;;;;;;4.53;1.95;;;10.30;99.90;;;;;;5401867;26;20014;-69
2024/04/19 05:00:28;;;;;;;7.07;2.30;;;10.40;99.90;;;;;;5390080;26;20019;-70
2024/04/19 05:02:59;;;;;;;11.52;2.72;;;10.40;99.90;;;;;;5384525;26;20014;-70
2024/04/19 05:05:26;;;;;;;7.85;1.83;;;10.40;99.90;;;;;;5384833;26;20007;-69
2024/04/19 05:07:53;;;;;;;8.30;2.15;;;10.40;99.90;;;;;;5396897;26;20051;-69
2024/04/19 05:10:20;;;;;;;5.28;2.17;;;10.40;99.90;;;;;;5380404;26;20044;-69
2024/04/19 05:12:47;;;;;;;15.10;2.38;;;10.40;99.90;;;;;;5390396;26;20008;-70
2024/04/19 05:15:14;;;;;;;22.58;4.53;;;10.40;99.90;;;;;;5376910;26;20018;-71
2024/04/19 05:17:43;;;;;;;8.57;3.30;;;10.50;99.90;;;;;;5396661;26;20003;-69
2024/04/19 05:20:10;;;;;;;11.90;5.43;;;10.50;99.90;;;;;;5372152;26;20016;-69
2024/04/19 05:22:38;;;;;;;14.05;8.68;;;10.50;99.90;;;;;;5387027;26;20000;-69
2024/04/19 05:25:06;;;;;;;25.25;9.20;;;10.50;99.90;;;;;;5402971;26;20048;-69
2024/04/19 05:27:33;;;;;;;21.42;8.60;;;10.50;99.90;;;;;;5377555;26;20022;-70
2024/04/19 05:30:00;;;;;;;18.35;6.45;;;10.50;99.90;;;;;;5400822;26;20478;-70
2024/04/19 05:32:28;;;;;;;14.63;4.95;;;10.50;99.90;;;;;;5392272;26;20016;-69
2024/04/19 05:34:55;;;;;;;8.40;3.28;;;10.50;99.90;;;;;;5397783;26;20082;-68
2024/04/19 05:37:22;;;;;;;15.52;3.28;;;10.50;99.90;;;;;;5383711;26;20634;-69
2024/04/19 05:39:49;;;;;;;15.27;2.75;;;10.50;99.90;;;;;;5383043;26;20019;-70
2024/04/19 05:42:16;;;;;;;10.05;3.13;;;10.60;99.90;;;;;;5396089;26;20008;-72
2024/04/19 05:44:43;;;;;;;12.65;2.25;;;10.60;99.90;;;;;;5385319;26;20000;-71
2024/04/19 05:47:10;;;;;;;10.10;3.15;;;10.60;99.90;;;;;;5399010;26;20015;-72
2024/04/19 05:49:37;;;;;;;11.00;3.90;;;10.60;99.90;;;;;;5375920;26;19996;-72
2024/04/19 05:52:04;;;;;;;14.90;4.13;;;10.60;99.90;;;;;;5381543;26;20008;-71
2024/04/19 05:54:31;;;;;;;9.45;2.10;;;10.60;99.90;;;;;;5380029;26;20004;-71
2024/04/19 05:57:01;;;;;;;17.38;4.03;;;10.60;99.90;;;;;;5389770;26;20530;-72
2024/04/19 05:59:28;;;;;;;11.07;2.22;;;10.70;99.90;;;;;;5387308;26;20191;-72
2024/04/19 06:01:56;;;;;;;9.02;1.95;;;10.70;99.90;;;;;;5391454;26;19996;-71
2024/04/19 06:04:23;;;;;;;11.50;2.80;;;10.70;99.90;;;;;;5380125;26;20008;-72
2024/04/19 06:06:50;;;;;;;18.17;2.78;;;10.60;99.90;;;;;;5378158;26;20015;-71
2024/04/19 06:09:17;;;;;;;11.65;2.53;;;10.70;99.90;;;;;;5380317;26;20005;-71
2024/04/19 06:11:44;;;;;;;9.77;2.25;;;10.70;99.90;;;;;;5389783;26;19996;-71
2024/04/19 06:14:11;;;;;;;18.83;2.30;;;10.70;99.90;;;;;;5395987;26;20025;-71
2024/04/19 06:16:38;;;;;;;5.40;1.98;;;10.60;99.90;;;;;;5387964;26;20015;-71
2024/04/19 06:19:05;;;;;;;7.00;2.00;;;10.70;99.90;;;;;;5389109;26;20015;-72
2024/04/19 06:21:32;;;;;;;12.10;2.17;;;10.70;99.90;;;;;;5381527;26;20000;-71
2024/04/19 06:23:59;;;;;;;6.75;1.60;;;10.70;99.90;;;;;;5383243;26;20019;-72
2024/04/19 06:26:26;;;;;;;6.00;1.67;;;10.70;99.90;;;;;;5403005;26;20049;-70
2024/04/19 06:28:53;;;;;;;12.50;2.13;;;10.70;99.90;;;;;;5386031;26;20019;-72
2024/04/19 06:31:20;;;;;;;11.32;2.42;;;10.60;99.90;;;;;;5389626;26;20019;-74
2024/04/19 06:33:47;;;;;;;8.65;2.17;;;10.70;99.90;;;;;;5390828;26;20076;-73
2024/04/19 06:36:15;;;;;;;9.88;2.15;;;10.70;99.90;;;;;;5391380;26;20031;-73
2024/04/19 06:38:42;;;;;;;12.55;2.85;;;10.70;99.90;;;;;;5379396;26;20012;-73
2024/04/19 06:41:09;;;;;;;16.60;2.65;;;10.80;99.90;;;;;;5395788;26;20461;-69
2024/04/19 06:43:39;;;;;;;7.43;1.98;;;10.80;99.90;;;;;;5394570;26;20129;-72
2024/04/19 06:46:06;;;;;;;11.32;2.58;;;10.80;99.90;;;;;;5377206;26;20005;-71
2024/04/19 06:48:34;;;;;;;6.07;2.03;;;10.80;99.90;;;;;;5382571;26;20088;-71
2024/04/19 06:51:01;;;;;;;13.55;3.05;;;10.80;99.90;;;;;;5384947;26;20012;-71
2024/04/19 06:53:28;;;;;;;19.75;2.90;;;10.90;99.90;;;;;;5406121;26;20019;-72
2024/04/19 06:55:55;;;;;;;14.88;2.20;;;11.00;99.90;;;;;;5365485;26;20022;-71
2024/04/19 06:58:22;;;;;;;15.32;2.58;;;11.00;99.90;;;;;;5385314;26;20004;-70
2024/04/19 07:00:50;;;;;;;12.55;1.75;;;11.00;99.90;;;;;;5392675;26;20138;-71
2024/04/19 07:03:38;;;;;;;16.85;2.28;;;11.00;99.90;;;;;;5383636;26;20300;-71
2024/04/19 07:06:12;;;;;;;13.93;2.20;;;11.10;99.90;;;;;;5385563;26;20015;-72
2024/04/19 07:08:53;;;;;;;10.23;2.45;;;11.10;99.90;;;;;;5370438;26;20010;-71
2024/04/19 07:11:20;;;;;;;9.82;1.92;;;11.10;99.90;;;;;;5384139;26;20017;-72
2024/04/19 07:13:47;;;;;;;8.68;1.85;;;11.10;99.90;;;;;;5398297;26;20046;-72
2024/04/19 07:16:14;;;;;;;6.22;2.25;;;11.10;99.90;;;;;;5393459;26;19999;-72
2024/04/19 07:18:44;;;;;;;9.98;1.60;;;11.10;99.90;;;;;;5379829;26;20433;-72
2024/04/19 07:21:11;;;;;;;16.70;3.63;;;11.00;99.90;;;;;;5395507;26;20024;-71
2024/04/19 07:23:38;;;;;;;8.88;2.45;;;11.00;99.90;;;;;;5391003;26;20000;-71
2024/04/19 07:26:05;;;;;;;7.75;1.95;;;11.00;99.90;;;;;;5398735;26;20016;-70
2024/04/19 07:28:32;;;;;;;7.60;1.55;;;11.10;99.90;;;;;;5381223;26;20004;-70
2024/04/19 07:31:00;;;;;;;5.95;1.58;;;11.00;99.90;;;;;;5393442;26;20007;-70
2024/04/19 07:33:27;;;;;;;7.88;1.95;;;10.90;99.90;;;;;;5395396;26;20013;-69
2024/04/19 07:35:54;;;;;;;13.18;2.03;;;11.00;99.90;;;;;;5401977;26;20334;-69
2024/04/19 07:38:21;;;;;;;7.75;1.85;;;11.00;99.90;;;;;;5372010;26;20016;-69
2024/04/19 07:40:48;;;;;;;7.90;1.73;;;11.00;99.90;;;;;;5390029;26;20000;-70
2024/04/19 07:43:15;;;;;;;7.30;1.52;;;11.10;99.90;;;;;;5392354;26;20530;-70
2024/04/19 07:45:43;;;;;;;6.47;1.73;;;11.20;99.90;;;;;;5394674;26;20520;-69
2024/04/19 07:48:10;;;;;;;5.72;1.20;;;11.30;99.90;;;;;;5395547;26;20018;-70
2024/04/19 07:50:39;;;;;;;4.00;1.10;;;11.40;99.90;;;;;;5375555;26;20050;-70
2024/04/19 07:53:08;;;;;;;3.72;1.33;;;11.40;99.90;;;;;;5384596;26;20336;-69
2024/04/19 07:55:41;;;;;;;7.82;1.27;;;11.50;99.90;;;;;;5384324;26;20004;-69
2024/04/19 07:58:10;;;;;;;3.43;1.17;;;11.50;99.90;;;;;;5392603;26;20242;-69
2024/04/19 08:00:37;;;;;;;11.63;1.73;;;11.50;99.90;;;;;;5384988;26;20017;-68
2024/04/19 08:03:04;;;;;;;7.85;1.45;;;11.60;99.90;;;;;;5393568;26;20003;-68
2024/04/19 08:05:31;;;;;;;7.25;1.20;;;11.70;99.90;;;;;;5377731;26;20004;-68
2024/04/19 08:07:59;;;;;;;7.72;1.02;;;11.80;99.90;;;;;;5381105;26;19996;-68
2024/04/19 08:10:26;;;;;;;7.47;1.50;;;11.70;99.90;;;;;;5376460;26;20008;-68
2024/04/19 08:12:57;;;;;;;9.25;1.55;;;11.80;99.90;;;;;;5386426;26;20007;-68
2024/04/19 08:15:24;;;;;;;8.02;1.70;;;11.80;99.90;;;;;;5377455;26;20523;-68
2024/04/19 08:17:51;;;;;;;6.18;1.90;;;11.90;99.90;;;;;;5392835;26;19999;-68
2024/04/19 08:20:18;;;;;;;4.90;1.00;;;11.80;99.90;;;;;;5395811;26;20127;-68
2024/04/19 08:22:45;;;;;;;8.77;1.38;;;11.80;99.90;;;;;;5393040;26;19995;-68
2024/04/19 08:25:12;;;;;;;6.07;1.70;;;11.80;99.90;;;;;;5379692;26;20016;-68
2024/04/19 08:27:39;;;;;;;11.35;1.70;;;11.80;99.90;;;;;;5379295;26;20007;-68
2024/04/19 08:30:07;;;;;;;7.68;1.60;;;11.80;99.90;;;;;;5383777;26;20023;-68
2024/04/19 08:32:34;;;;;;;11.63;1.92;;;11.80;99.90;;;;;;5374893;26;20084;-69
2024/04/19 08:35:03;;;;;;;4.68;1.25;;;11.80;99.90;;;;;;5401897;26;20084;-68
2024/04/19 08:37:31;;;;;;;13.68;1.15;;;11.80;99.90;;;;;;5372115;26;19996;-68
2024/04/19 08:39:59;;;;;;;6.03;1.42;;;11.70;99.90;;;;;;5395697;26;20029;-68
2024/04/19 08:42:26;;;;;;;4.05;1.33;;;11.80;99.90;;;;;;5394745;26;20247;-68
2024/04/19 08:44:53;;;;;;;2.85;0.80;;;11.90;99.90;;;;;;5390927;26;20008;-69
2024/04/19 08:47:20;;;;;;;10.55;1.35;;;12.00;99.90;;;;;;5360737;26;20000;-68
2024/04/19 08:49:49;;;;;;;6.30;1.05;;;12.00;99.90;;;;;;5392811;26;20077;-68
2024/04/19 08:52:17;;;;;;;3.45;0.98;;;12.10;99.90;;;;;;5381770;26;20000;-68
2024/04/19 08:55:07;;;;;;;6.20;1.45;;;12.00;99.90;;;;;;5383246;26;20068;-68
2024/04/19 08:57:38;;;;;;;4.40;1.10;;;12.00;99.90;;;;;;5400829;26;20018;-68
2024/04/19 09:00:06;;;;;;;8.13;1.40;;;12.00;99.90;;;;;;5400492;26;20010;-69
2024/04/19 09:02:40;;;;;;;4.10;2.50;;;12.00;99.90;;;;;;5404191;26;20003;-68
2024/04/19 09:05:07;;;;;;;5.70;1.40;;;12.20;99.90;;;;;;5401320;26;20027;-68
2024/04/19 09:07:35;;;;;;;3.65;1.30;;;12.30;99.90;;;;;;5379645;26;20319;-69
2024/04/19 09:10:02;;;;;;;3.65;0.98;;;12.10;99.90;;;;;;5391545;26;20080;-69
2024/04/19 09:12:32;;;;;;;5.97;1.20;;;12.20;99.90;;;;;;5379013;26;20015;-69
2024/04/19 09:15:00;;;;;;;4.82;1.00;;;12.10;99.90;;;;;;5379090;26;20018;-69
2024/04/19 09:17:27;;;;;;;3.40;0.80;;;12.20;99.90;;;;;;5382806;26;20334;-69
2024/04/19 09:19:56;;;;;;;5.70;1.13;;;12.20;99.90;;;;;;5388380;26;20007;-68
2024/04/19 09:22:23;;;;;;;3.42;1.15;;;12.30;99.90;;;;;;5386646;26;20390;-69
2024/04/19 09:24:53;;;;;;;8.48;1.08;;;12.50;99.90;;;;;;5386849;26;20012;-67
2024/04/19 09:27:24;;;;;;;4.22;1.00;;;12.50;99.90;;;;;;5393890;26;20008;-68
2024/04/19 09:29:51;;;;;;;3.75;1.08;;;12.60;99.90;;;;;;5386909;26;20003;-68
2024/04/19 09:32:20;;;;;;;3.13;0.70;;;12.60;99.90;;;;;;5389307;26;20010;-69
2024/04/19 09:34:49;;;;;;;7.30;1.90;;;12.50;99.90;;;;;;5381763;26;20587;-68
2024/04/19 09:37:16;;;;;;;5.82;0.80;;;12.50;99.90;;;;;;5394463;26;20005;-69
2024/04/19 09:39:42;;;;;;;6.43;1.13;;;12.50;99.90;;;;;;5399199;26;20001;-69
2024/04/19 09:42:09;;;;;;;3.05;0.80;;;12.40;99.90;;;;;;5391354;26;20039;-68
2024/04/19 09:44:37;;;;;;;4.30;0.80;;;12.40;99.90;;;;;;5398598;26;20004;-68
2024/04/19 09:47:04;;;;;;;2.70;0.90;;;12.30;99.90;;;;;;5394431;26;20010;-69
2024/04/19 09:49:32;;;;;;;3.97;0.80;;;12.40;99.90;;;;;;5375827;26;20010;-70
2024/04/19 09:51:59;;;;;;;5.47;1.00;;;12.30;99.90;;;;;;5400157;26;20513;-69
2024/04/19 09:54:28;;;;;;;6.13;1.40;;;12.50;99.90;;;;;;5372817;26;20039;-67
2024/04/19 09:57:03;;;;;;;1.70;0.77;;;12.50;99.90;;;;;;5400873;26;20022;-68
2024/04/19 09:59:31;;;;;;;4.55;1.20;;;12.50;99.90;;;;;;5397041;26;20001;-67
2024/04/19 10:01:58;;;;;;;3.13;0.90;;;12.50;99.90;;;;;;5365666;26;20005;-68
2024/04/19 10:04:25;;;;;;;1.38;0.60;;;12.50;99.90;;;;;;5379658;26;20431;-67
2024/04/19 10:06:53;;;;;;;6.20;1.30;;;12.50;99.90;;;;;;5389956;26;20113;-68
2024/04/19 10:09:25;;;;;;;1.73;0.70;;;12.30;99.90;;;;;;5383873;26;20000;-68
2024/04/19 10:11:53;;;;;;;3.70;0.70;;;12.20;99.90;;;;;;5388362;26;20019;-68
2024/04/19 10:14:21;;;;;;;2.15;0.70;;;12.10;99.90;;;;;;5393649;26;20004;-69
2024/04/19 10:16:48;;;;;;;4.35;1.20;;;12.20;99.90;;;;;;5384692;26;20015;-68
2024/04/19 10:19:16;;;;;;;3.58;0.90;;;12.40;99.90;;;;;;5407531;26;20008;-68
2024/04/19 10:21:43;;;;;;;2.08;0.68;;;12.30;99.90;;;;;;5390816;26;20019;-68
2024/04/19 10:24:16;;;;;;;4.60;2.55;;;12.50;99.90;;;;;;5402300;26;20003;-68
2024/04/19 10:26:53;;;;;;;3.30;0.70;;;12.60;99.90;;;;;;5397890;26;20097;-69
2024/04/19 10:29:26;;;;;;;2.28;0.60;;;12.70;99.90;;;;;;5392238;26;20077;-68
2024/04/19 10:31:54;;;;;;;;;;;12.90;99.90;;;;;;5397777;26;20024;-68
2024/04/19 10:34:22;;;;;;;2.28;0.85;;;13.10;99.90;;;;;;5401253;26;19925;-68
2024/04/19 10:36:52;;;;;;;3.67;0.82;;;13.30;99.90;;;;;;5350522;26;20014;-67
2024/04/19 10:39:20;;;;;;;4.55;0.80;;;13.50;99.90;;;;;;5387880;26;20032;-68
2024/04/19 10:41:52;;;;;;;15.23;6.28;;;13.50;99.90;;;;;;5384527;26;20008;-67
2024/04/19 10:44:20;;;;;;;11.48;7.60;;;13.50;99.90;;;;;;5393023;26;20012;-66
2024/04/19 10:46:49;;;;;;;3.63;2.40;;;13.40;99.90;;;;;;5373946;26;20015;-67
2024/04/19 10:49:20;;;;;;;3.00;1.40;;;13.30;99.90;;;;;;5375667;26;20027;-68
2024/04/19 10:51:49;;;;;;;10.30;1.02;;;13.00;99.90;;;;;;5388290;26;20011;-68
2024/04/19 10:54:16;;;;;;;1.38;0.70;;;12.60;99.90;;;;;;5382911;26;20007;-68
2024/04/19 10:56:44;;;;;;;3.38;0.68;;;12.40;99.90;;;;;;5409364;26;20007;-69
2024/04/19 10:59:11;;;;;;;2.25;0.70;;;12.20;99.90;;;;;;5394384;26;20298;-69
2024/04/19 11:01:40;;;;;;;3.17;0.68;;;12.30;99.90;;;;;;5391334;26;20002;-68
2024/04/19 11:04:08;;;;;;;1.77;0.70;;;12.40;99.90;;;;;;5396557;26;20010;-68
2024/04/19 11:06:36;;;;;;;3.10;0.57;;;12.70;99.90;;;;;;5381518;26;20459;-67
2024/04/19 11:09:03;;;;;;;0.88;0.57;;;12.70;99.90;;;;;;5384995;26;20004;-69
2024/04/19 11:11:37;;;;;;;3.45;1.05;;;12.80;99.90;;;;;;5392326;26;20043;-69
2024/04/19 11:14:09;;;;;;;1.55;0.70;;;12.90;99.90;;;;;;5368956;26;20008;-69
2024/04/19 11:16:36;;;;;;;2.95;0.82;;;12.90;99.90;;;;;;5381166;26;20008;-68
2024/04/19 11:19:03;;;;;;;3.10;1.20;;;12.90;99.90;;;;;;5388688;26;20008;-69
2024/04/19 11:21:31;;;;;;;1.92;0.57;;;13.00;99.90;;;;;;5374891;26;20010;-69
2024/04/19 11:23:58;;;;;;;2.60;1.00;;;13.00;99.90;;;;;;5399476;26;20015;-70
2024/04/19 11:26:25;;;;;;;3.72;1.00;;;12.80;99.90;;;;;;5381556;26;20012;-69
2024/04/19 11:28:52;;;;;;;7.88;1.77;;;12.50;99.90;;;;;;5402401;26;20367;-68
2024/04/19 11:31:19;;;;;;;2.10;1.00;;;12.00;99.90;;;;;;5394813;26;20004;-69
2024/04/19 11:33:51;;;;;;;5.90;0.80;;;11.50;99.90;;;;;;5383158;26;20210;-69
2024/04/19 11:36:18;;;;;;;2.88;0.90;;;11.20;99.90;;;;;;5396255;26;20009;-70
2024/04/19 11:38:45;;;;;;;2.88;1.15;;;11.10;99.90;;;;;;5405063;26;20019;-70
2024/04/19 11:41:15;;;;;;;5.20;0.80;;;11.00;99.90;;;;;;5399347;26;20011;-69
2024/04/19 11:43:42;;;;;;;1.10;0.95;;;10.90;99.90;;;;;;5393376;26;20467;-68
2024/04/19 11:46:09;;;;;;;3.88;0.90;;;10.90;99.90;;;;;;5396477;26;20043;-68
2024/04/19 11:48:36;;;;;;;1.17;0.55;;;10.90;99.90;;;;;;5406369;26;20057;-70
2024/04/19 11:51:03;;;;;;;3.40;1.00;;;11.00;99.90;;;;;;5377539;26;20022;-68
2024/04/19 11:53:30;;;;;;;3.75;0.77;;;11.00;99.90;;;;;;5389874;26;20003;-68
2024/04/19 11:55:57;;;;;;;1.70;0.88;;;11.00;99.90;;;;;;5395277;26;20522;-69
2024/04/19 11:58:24;;;;;;;3.70;0.93;;;11.00;99.90;;;;;;5372908;26;20347;-68
2024/04/19 12:00:51;;;;;;;1.90;0.88;;;11.00;99.90;;;;;;5384795;26;20706;-69
2024/04/19 12:03:18;;;;;;;2.95;0.70;;;10.80;99.90;;;;;;5375998;26;20347;-68
2024/04/19 12:05:45;;;;;;;5.90;1.30;;;10.80;99.90;;;;;;5384570;26;20055;-68
2024/04/19 12:08:12;;;;;;;1.55;0.90;;;10.80;99.90;;;;;;5380018;26;20004;-68
2024/04/19 12:10:39;;;;;;;16.17;1.83;;;10.80;99.90;;;;;;5390485;26;20080;-68
2024/04/19 12:13:08;;;;;;;3.20;1.15;;;10.90;99.90;;;;;;5382241;26;20104;-69
2024/04/19 12:15:55;;;;;;;1.15;0.60;;;11.00;99.90;;;;;;5384431;26;20008;-70
2024/04/19 12:18:24;;;;;;;4.93;1.52;;;11.10;99.90;;;;;;5396053;26;20014;-69
2024/04/19 12:20:55;;;;;;;1.25;0.65;;;11.20;99.90;;;;;;5382424;26;20040;-69
2024/04/19 12:23:22;;;;;;;1.42;0.80;;;11.30;99.90;;;;;;5363477;26;21020;-69
2024/04/19 12:25:50;;;;;;;2.22;1.00;;;11.40;99.90;;;;;;5398977;26;20020;-69
2024/04/19 12:28:23;;;;;;;2.38;1.08;;;11.50;99.90;;;;;;5385376;26;19999;-68
2024/04/19 12:30:54;;;;;;;4.57;1.73;;;11.60;99.90;;;;;;5397520;26;20071;-72
2024/04/19 12:33:21;;;;;;;6.60;1.77;;;11.90;99.90;;;;;;5398110;26;19999;-69
2024/04/19 12:35:49;;;;;;;4.05;1.67;;;12.10;99.90;;;;;;5394944;26;20004;-70
2024/04/19 12:38:16;;;;;;;3.08;1.45;;;12.50;99.90;;;;;;5388026;26;20003;-68
2024/04/19 12:40:43;;;;;;;4.00;1.95;;;12.50;99.90;;;;;;5406642;26;20038;-68
2024/04/19 12:43:10;;;;;;;3.17;1.25;;;12.60;99.90;;;;;;5392825;26;20015;-67
2024/04/19 12:45:37;;;;;;;4.50;1.70;;;12.60;99.90;;;;;;5373786;26;20000;-67
2024/04/19 12:48:08;;;;;;;5.97;1.27;;;12.70;99.90;;;;;;5373103;26;20000;-68
2024/04/19 12:50:35;;;;;;;4.63;2.15;;;12.80;99.90;;;;;;5377116;26;20004;-68
2024/04/19 12:53:02;;;;;;;6.50;2.05;;;12.80;99.90;;;;;;5397068;26;20003;-69
2024/04/19 12:55:33;;;;;;;5.55;1.00;;;12.90;99.90;;;;;;5392214;26;20011;-68
2024/04/19 12:58:00;;;;;;;2.92;0.90;;;13.00;99.90;;;;;;5406532;26;20015;-68